createdAt,value
2019-03-31T00:00:36.283Z,28.60
2019-03-31T00:03:05.605Z,31.23
2019-03-31T00:05:37.256Z,25.50
2019-03-31T00:08:05.849Z,25.97
2019-03-31T00:10:35.305Z,25.32
2019-03-31T00:13:04.803Z,28.00
2019-03-31T00:15:34.217Z,36.53
2019-03-31T00:18:03.537Z,28.80
2019-03-31T00:20:32.742Z,26.67
2019-03-31T00:23:02.037Z,27.30
2019-03-31T00:25:31.360Z,28.80
2019-03-31T00:28:00.584Z,27.75
2019-03-31T00:30:30.372Z,23.65
2019-03-31T00:32:59.682Z,26.63
2019-03-31T00:35:28.918Z,27.67
2019-03-31T00:37:58.176Z,30.33
2019-03-31T00:40:27.642Z,27.53
2019-03-31T00:42:57.598Z,24.18
2019-03-31T00:45:27.025Z,31.83
2019-03-31T00:47:56.623Z,26.60
2019-03-31T00:50:26.800Z,29.40
2019-03-31T00:52:56.103Z,25.20
2019-03-31T00:55:25.366Z,27.63
2019-03-31T00:57:54.830Z,28.87
2019-03-31T01:00:42.458Z,26.67
2019-03-31T01:03:11.811Z,28.33
2019-03-31T01:05:42.641Z,21.33
2019-03-31T01:08:12.501Z,27.35
2019-03-31T01:10:42.121Z,21.83
2019-03-31T01:13:12.227Z,27.30
2019-03-31T01:15:41.916Z,26.10
2019-03-31T01:18:11.894Z,26.80
2019-03-31T01:20:41.414Z,22.00
2019-03-31T01:23:10.714Z,31.33
2019-03-31T01:25:40.077Z,24.97
2019-03-31T01:28:09.723Z,23.07
2019-03-31T01:30:39.312Z,28.33
2019-03-31T01:33:09.391Z,21.03
2019-03-31T01:35:38.898Z,22.63
2019-03-31T01:38:08.157Z,29.93
2019-03-31T01:40:37.641Z,25.70
2019-03-31T01:43:07.404Z,23.83
2019-03-31T01:45:37.710Z,25.47
2019-03-31T01:48:06.940Z,31.53
2019-03-31T01:50:36.209Z,27.60
2019-03-31T01:53:06.590Z,28.33
2019-03-31T01:55:36.285Z,26.67
2019-03-31T01:58:05.605Z,28.57
2019-03-31T02:00:38.696Z,29.80
2019-03-31T02:03:07.962Z,24.93
2019-03-31T02:05:37.472Z,28.57
2019-03-31T02:08:06.954Z,26.10
2019-03-31T02:10:36.490Z,31.33
2019-03-31T02:13:06.106Z,35.40
2019-03-31T02:15:35.489Z,30.00
2019-03-31T02:18:04.840Z,29.73
2019-03-31T02:20:34.355Z,30.53
2019-03-31T02:23:04.015Z,28.50
2019-03-31T02:25:33.524Z,35.70
2019-03-31T02:28:03.016Z,34.30
2019-03-31T02:30:32.526Z,32.47
2019-03-31T02:33:01.853Z,33.50
2019-03-31T02:35:31.093Z,30.97
2019-03-31T02:38:00.720Z,36.13
2019-03-31T02:40:30.032Z,38.03
2019-03-31T02:42:59.807Z,34.27
2019-03-31T02:45:29.913Z,31.87
2019-03-31T02:48:00.366Z,29.57
2019-03-31T02:50:48.496Z,40.67
2019-03-31T02:53:18.975Z,32.00
2019-03-31T02:55:48.964Z,31.17
2019-03-31T02:58:19.675Z,34.00
2019-03-31T03:00:48.948Z,33.33
2019-03-31T03:03:19.276Z,33.63
2019-03-31T03:05:49.263Z,34.90
2019-03-31T03:08:23.262Z,36.97
2019-03-31T03:10:53.999Z,29.57
2019-03-31T03:13:27.086Z,27.57
2019-03-31T03:16:19.752Z,37.83
2019-03-31T03:18:50.101Z,33.93
2019-03-31T03:21:23.786Z,30.30
2019-03-31T03:23:51.588Z,32.50
2019-03-31T03:26:20.978Z,38.23
2019-03-31T03:28:50.335Z,40.20
2019-03-31T03:31:20.124Z,32.43
2019-03-31T03:33:49.823Z,36.97
2019-03-31T03:36:19.449Z,33.87
2019-03-31T03:38:49.031Z,37.50
2019-03-31T03:41:18.276Z,39.40
2019-03-31T03:43:55.867Z,38.33
2019-03-31T03:46:18.742Z,38.90
2019-03-31T03:48:48.172Z,38.77
2019-03-31T03:51:17.492Z,36.57
2019-03-31T03:53:46.890Z,35.43
2019-03-31T03:56:16.181Z,38.73
2019-03-31T03:58:46.345Z,35.37
2019-03-31T04:01:23.683Z,40.63
2019-03-31T04:03:53.219Z,36.23
2019-03-31T04:06:22.689Z,34.83
2019-03-31T04:08:51.959Z,40.97
2019-03-31T04:11:23.842Z,40.93
2019-03-31T04:13:54.450Z,38.23
2019-03-31T04:16:24.515Z,50.37
2019-03-31T04:18:54.051Z,49.10
2019-03-31T04:21:23.438Z,48.00
2019-03-31T04:23:53.576Z,43.63
2019-03-31T04:26:22.891Z,40.60
2019-03-31T04:28:53.088Z,55.33
2019-03-31T04:31:22.494Z,38.90
2019-03-31T04:33:53.151Z,42.80
2019-03-31T04:36:22.692Z,51.43
2019-03-31T04:38:52.305Z,47.63
2019-03-31T04:41:21.651Z,50.93
2019-03-31T04:43:51.370Z,46.20
2019-03-31T04:46:21.199Z,53.93
2019-03-31T04:48:51.550Z,46.85
2019-03-31T04:51:21.469Z,50.80
2019-03-31T04:53:50.797Z,49.00
2019-03-31T04:56:20.269Z,48.17
2019-03-31T04:58:49.965Z,42.13
2019-03-31T05:01:19.958Z,47.93
2019-03-31T05:04:03.398Z,44.50
2019-03-31T05:06:20.175Z,51.00
2019-03-31T05:08:49.767Z,48.07
2019-03-31T05:11:19.234Z,46.23
2019-03-31T05:13:48.476Z,46.90
2019-03-31T05:16:18.064Z,49.27
2019-03-31T05:18:47.569Z,43.50
2019-03-31T05:21:17.095Z,56.73
2019-03-31T05:23:46.617Z,45.33
2019-03-31T05:26:16.100Z,50.43
2019-03-31T05:28:45.653Z,40.97
2019-03-31T05:31:14.975Z,44.53
2019-03-31T05:33:44.437Z,49.93
2019-03-31T05:36:13.718Z,48.80
2019-03-31T05:38:43.131Z,49.40
2019-03-31T05:41:12.353Z,56.30
2019-03-31T05:43:41.853Z,42.88
2019-03-31T05:46:11.116Z,40.52
2019-03-31T05:48:40.402Z,38.23
2019-03-31T05:51:10.788Z,52.55
2019-03-31T05:53:41.357Z,46.05
2019-03-31T05:56:10.980Z,49.30
2019-03-31T05:58:40.574Z,51.28
2019-03-31T06:01:10.227Z,56.75
2019-03-31T06:03:39.739Z,48.40
2019-03-31T06:06:09.232Z,49.97
2019-03-31T06:08:38.515Z,49.35
2019-03-31T06:11:07.788Z,43.33
2019-03-31T06:13:37.061Z,50.37
2019-03-31T06:16:06.362Z,51.53
2019-03-31T06:18:35.820Z,48.10
2019-03-31T06:21:06.046Z,41.88
2019-03-31T06:23:35.446Z,42.93
2019-03-31T06:26:04.786Z,44.07
2019-03-31T06:28:34.337Z,43.20
2019-03-31T06:31:04.004Z,42.20
2019-03-31T06:33:33.452Z,33.07
2019-03-31T06:36:03.237Z,37.20
2019-03-31T06:38:32.728Z,38.75
2019-03-31T06:41:05.030Z,40.10
2019-03-31T06:43:37.272Z,32.42
2019-03-31T06:46:06.858Z,35.40
2019-03-31T06:48:36.221Z,34.55
2019-03-31T06:51:05.613Z,33.23
2019-03-31T06:53:35.291Z,30.70
2019-03-31T06:56:06.343Z,41.35
2019-03-31T06:58:35.837Z,34.03
2019-03-31T07:01:05.411Z,29.02
2019-03-31T07:03:34.933Z,29.63
2019-03-31T07:06:04.481Z,33.92
2019-03-31T07:08:33.801Z,29.05
2019-03-31T07:11:03.071Z,24.43
2019-03-31T07:13:32.299Z,24.12
2019-03-31T07:16:01.729Z,22.90
2019-03-31T07:18:31.191Z,20.75
2019-03-31T07:21:00.938Z,21.73
2019-03-31T07:23:30.319Z,23.10
2019-03-31T07:25:59.705Z,21.57
2019-03-31T07:28:29.565Z,19.60
2019-03-31T07:30:59.547Z,21.77
2019-03-31T07:33:28.853Z,26.15
2019-03-31T07:35:58.084Z,23.25
2019-03-31T07:38:38.279Z,21.07
2019-03-31T07:41:11.955Z,20.45
2019-03-31T07:43:30.244Z,21.17
2019-03-31T07:45:59.835Z,23.67
2019-03-31T07:48:29.320Z,24.20
2019-03-31T07:50:58.547Z,25.55
2019-03-31T07:53:27.927Z,19.20
2019-03-31T07:55:57.166Z,23.73
2019-03-31T07:58:26.842Z,25.15
2019-03-31T08:00:56.131Z,16.57
2019-03-31T08:03:26.555Z,20.37
2019-03-31T08:05:59.061Z,22.93
2019-03-31T08:08:28.480Z,17.70
2019-03-31T08:10:57.718Z,20.23
2019-03-31T08:13:27.805Z,22.73
2019-03-31T08:15:57.124Z,14.98
2019-03-31T08:18:26.739Z,21.87
2019-03-31T08:20:58.894Z,18.62
2019-03-31T08:23:28.219Z,17.52
2019-03-31T08:25:57.697Z,15.28
2019-03-31T08:28:27.243Z,15.88
2019-03-31T08:30:58.189Z,20.20
2019-03-31T08:33:27.431Z,13.15
2019-03-31T08:35:56.718Z,16.73
2019-03-31T08:38:26.391Z,18.82
2019-03-31T08:40:58.283Z,17.62
2019-03-31T08:43:27.785Z,14.90
2019-03-31T08:45:57.240Z,13.18
2019-03-31T08:48:26.489Z,14.47
2019-03-31T08:50:56.045Z,12.37
2019-03-31T08:53:25.684Z,14.83
2019-03-31T08:55:54.981Z,15.28
2019-03-31T08:58:24.340Z,18.07
2019-03-31T09:01:00.618Z,23.12
2019-03-31T09:03:29.883Z,17.50
2019-03-31T09:06:02.021Z,15.98
2019-03-31T09:08:30.458Z,15.57
2019-03-31T09:10:59.832Z,20.30
2019-03-31T09:13:29.073Z,18.07
2019-03-31T09:15:58.361Z,18.05
2019-03-31T09:18:27.673Z,16.87
2019-03-31T09:20:57.019Z,13.93
2019-03-31T09:23:26.746Z,15.48
2019-03-31T09:25:56.426Z,14.10
2019-03-31T09:28:26.163Z,18.82
2019-03-31T09:30:55.787Z,18.50
2019-03-31T09:33:25.037Z,17.60
2019-03-31T09:35:54.249Z,15.10
2019-03-31T09:38:23.483Z,15.68
2019-03-31T09:40:52.997Z,14.07
2019-03-31T09:43:22.249Z,13.60
2019-03-31T09:45:51.796Z,20.27
2019-03-31T09:48:21.018Z,13.75
2019-03-31T09:50:50.562Z,21.50
2019-03-31T09:53:20.209Z,11.10
2019-03-31T09:55:49.780Z,15.50
2019-03-31T09:58:19.130Z,14.80
2019-03-31T10:00:50.011Z,17.48
2019-03-31T10:03:20.058Z,15.77
2019-03-31T10:05:49.615Z,19.90
2019-03-31T10:08:21.981Z,15.13
2019-03-31T10:10:52.387Z,10.95
2019-03-31T10:13:22.551Z,14.18
2019-03-31T10:15:52.206Z,11.20
2019-03-31T10:18:21.698Z,10.03
2019-03-31T10:20:50.943Z,16.23
2019-03-31T10:23:20.179Z,12.70
2019-03-31T10:25:49.423Z,12.73
2019-03-31T10:28:18.699Z,13.35
2019-03-31T10:30:49.300Z,19.35
2019-03-31T10:33:19.484Z,15.15
2019-03-31T10:35:49.507Z,10.05
2019-03-31T10:38:19.078Z,7.08
2019-03-31T10:40:48.412Z,5.37
2019-03-31T10:43:17.642Z,5.35
2019-03-31T10:45:46.949Z,9.33
2019-03-31T10:48:20.775Z,6.22
2019-03-31T10:50:48.010Z,8.15
2019-03-31T10:53:17.485Z,10.43
2019-03-31T10:55:46.738Z,9.83
2019-03-31T10:58:15.946Z,9.60
2019-03-31T11:00:45.922Z,8.28
2019-03-31T11:03:15.439Z,7.03
2019-03-31T11:05:45.067Z,6.90
2019-03-31T11:08:14.662Z,6.47
2019-03-31T11:10:43.901Z,9.48
2019-03-31T11:13:13.400Z,8.28
2019-03-31T11:15:43.181Z,5.80
2019-03-31T11:18:12.460Z,7.03
2019-03-31T11:20:41.875Z,8.78
2019-03-31T11:23:22.748Z,8.05
2019-03-31T11:25:52.795Z,5.90
2019-03-31T11:28:22.469Z,4.95
2019-03-31T11:30:51.879Z,8.60
2019-03-31T11:33:21.934Z,6.90
2019-03-31T11:35:54.219Z,9.80
2019-03-31T11:38:23.532Z,8.63
2019-03-31T11:40:52.832Z,5.97
2019-03-31T11:43:22.062Z,10.03
2019-03-31T11:45:51.482Z,7.50
2019-03-31T11:48:22.053Z,7.05
2019-03-31T11:50:51.337Z,5.65
2019-03-31T11:53:21.246Z,5.30
2019-03-31T11:55:50.831Z,6.78
2019-03-31T11:58:21.260Z,8.13
2019-03-31T12:00:52.952Z,7.00
2019-03-31T12:03:22.341Z,9.23
2019-03-31T12:05:56.502Z,8.70
2019-03-31T12:08:28.457Z,6.83
2019-03-31T12:10:58.498Z,6.80
2019-03-31T12:13:32.744Z,4.00
2019-03-31T12:16:02.363Z,5.95
2019-03-31T12:18:32.177Z,6.60
2019-03-31T12:21:01.744Z,3.52
2019-03-31T12:23:31.045Z,7.75
2019-03-31T12:26:00.670Z,6.72
2019-03-31T12:28:30.173Z,4.10
2019-03-31T12:30:59.453Z,6.85
2019-03-31T12:33:28.713Z,5.87
2019-03-31T12:35:58.056Z,3.92
2019-03-31T12:38:27.364Z,4.47
2019-03-31T12:40:56.636Z,7.35
2019-03-31T12:43:25.877Z,3.92
2019-03-31T12:45:55.305Z,9.68
2019-03-31T12:48:24.841Z,2.17
2019-03-31T12:50:54.374Z,3.27
2019-03-31T12:53:23.740Z,5.85
2019-03-31T12:55:59.875Z,4.92
2019-03-31T12:58:24.330Z,3.35
2019-03-31T13:00:53.659Z,5.00
2019-03-31T13:03:23.197Z,5.53
2019-03-31T13:05:52.402Z,4.03
2019-03-31T13:08:21.946Z,5.05
2019-03-31T13:10:51.195Z,4.37
2019-03-31T13:13:20.421Z,4.10
2019-03-31T13:15:49.792Z,3.40
2019-03-31T13:18:19.125Z,3.40
2019-03-31T13:20:50.270Z,5.72
2019-03-31T13:23:20.569Z,2.70
2019-03-31T13:25:49.954Z,3.20
2019-03-31T13:28:19.186Z,7.33
2019-03-31T13:30:48.716Z,7.20
2019-03-31T13:33:17.988Z,2.85
2019-03-31T13:35:48.847Z,2.50
2019-03-31T13:38:18.433Z,2.17
2019-03-31T13:40:50.477Z,4.50
2019-03-31T13:43:18.890Z,3.22
2019-03-31T13:45:48.836Z,4.87
2019-03-31T13:48:18.140Z,3.87
2019-03-31T13:50:47.459Z,3.42
2019-03-31T13:53:16.866Z,4.47
2019-03-31T13:55:46.345Z,6.30
2019-03-31T13:58:19.353Z,3.52
2019-03-31T14:00:50.376Z,3.73
2019-03-31T14:03:19.898Z,2.90
2019-03-31T14:05:50.871Z,5.78
2019-03-31T14:08:26.053Z,7.05
2019-03-31T14:10:51.262Z,3.50
2019-03-31T14:13:21.480Z,7.62
2019-03-31T14:15:51.094Z,5.15
2019-03-31T14:18:21.107Z,2.40
2019-03-31T14:20:50.418Z,5.12
2019-03-31T14:23:20.180Z,5.58
2019-03-31T14:25:50.003Z,5.00
2019-03-31T14:28:19.283Z,5.58
2019-03-31T14:30:49.044Z,7.17
2019-03-31T14:33:18.302Z,1.98
2019-03-31T14:35:48.697Z,5.72
2019-03-31T14:38:18.121Z,6.03
2019-03-31T14:40:47.629Z,4.70
2019-03-31T14:43:16.934Z,7.80
2019-03-31T14:45:46.278Z,5.85
2019-03-31T14:48:15.547Z,3.12
2019-03-31T14:50:44.833Z,6.60
2019-03-31T14:53:14.216Z,3.62
2019-03-31T14:55:43.723Z,4.87
2019-03-31T14:58:13.220Z,3.77
2019-03-31T15:00:42.865Z,9.78
2019-03-31T15:03:12.163Z,7.75
2019-03-31T15:05:41.469Z,3.52
2019-03-31T15:08:10.872Z,5.80
2019-03-31T15:10:40.290Z,1.42
2019-03-31T15:13:09.678Z,9.63
2019-03-31T15:15:39.542Z,2.50
2019-03-31T15:18:45.841Z,7.37
2019-03-31T15:21:15.481Z,1.62
2019-03-31T15:24:00.638Z,6.35
2019-03-31T15:26:31.289Z,3.62
2019-03-31T15:29:01.033Z,2.12
2019-03-31T15:31:30.562Z,4.37
2019-03-31T15:34:00.849Z,6.47
2019-03-31T15:36:32.889Z,6.78
2019-03-31T15:39:08.852Z,1.65
2019-03-31T15:41:33.159Z,1.95
2019-03-31T15:44:02.908Z,1.90
2019-03-31T15:46:32.239Z,2.33
2019-03-31T15:49:01.621Z,3.00
2019-03-31T15:51:46.093Z,3.72
2019-03-31T15:54:15.831Z,2.33
2019-03-31T15:56:45.414Z,0.60
2019-03-31T15:59:14.651Z,2.00
2019-03-31T16:01:43.975Z,2.63
2019-03-31T16:04:13.551Z,2.67
2019-03-31T16:06:42.918Z,5.37
2019-03-31T16:09:22.820Z,3.07
2019-03-31T16:11:53.163Z,1.87
2019-03-31T16:14:12.851Z,3.22
2019-03-31T16:16:41.601Z,4.12
2019-03-31T16:19:10.690Z,2.37
2019-03-31T16:21:39.453Z,2.90
2019-03-31T16:24:08.233Z,2.08
2019-03-31T16:26:37.182Z,2.33
2019-03-31T16:29:06.082Z,2.55
2019-03-31T16:31:34.793Z,2.52
2019-03-31T16:34:03.483Z,2.77
2019-03-31T16:36:32.417Z,4.10
2019-03-31T16:39:01.537Z,2.13
2019-03-31T16:41:30.290Z,1.50
2019-03-31T16:44:12.189Z,1.10
2019-03-31T16:46:41.999Z,6.70
2019-03-31T16:49:11.474Z,3.07
2019-03-31T16:51:41.542Z,4.50
2019-03-31T16:54:15.056Z,6.10
2019-03-31T16:56:43.765Z,9.30
2019-03-31T16:59:12.862Z,5.87
2019-03-31T17:01:41.610Z,3.13
2019-03-31T17:04:13.091Z,1.63
2019-03-31T17:06:42.299Z,2.10
2019-03-31T17:09:11.071Z,2.57
2019-03-31T17:11:39.757Z,4.00
2019-03-31T17:14:08.780Z,3.45
2019-03-31T17:16:38.896Z,2.90
2019-03-31T17:19:07.820Z,3.02
2019-03-31T17:21:36.514Z,5.03
2019-03-31T17:24:05.217Z,3.55
2019-03-31T17:26:33.988Z,1.20
2019-03-31T17:29:02.797Z,5.10
2019-03-31T17:31:33.028Z,6.97
2019-03-31T17:34:01.693Z,0.83
2019-03-31T17:36:30.457Z,4.90
2019-03-31T17:38:59.202Z,0.47
2019-03-31T17:41:27.950Z,1.65
2019-03-31T17:43:57.174Z,2.87
2019-03-31T17:46:26.054Z,5.37
2019-03-31T17:48:55.018Z,4.20
2019-03-31T17:51:23.716Z,2.33
2019-03-31T17:53:52.803Z,10.67
2019-03-31T17:56:21.502Z,5.20
2019-03-31T17:58:50.579Z,3.87
2019-03-31T18:01:19.236Z,10.17
2019-03-31T18:03:48.141Z,2.57
2019-03-31T18:06:16.924Z,4.23
2019-03-31T18:08:45.578Z,4.23
2019-03-31T18:11:14.270Z,3.80
2019-03-31T18:13:43.262Z,2.87
2019-03-31T18:16:11.950Z,4.93
2019-03-31T18:18:40.637Z,6.37
2019-03-31T18:21:09.666Z,2.10
2019-03-31T18:23:38.498Z,5.10
2019-03-31T18:26:07.509Z,7.07
2019-03-31T18:28:36.826Z,3.08
2019-03-31T18:31:05.730Z,1.87
2019-03-31T18:33:35.030Z,3.50
2019-03-31T18:36:03.934Z,9.50
2019-03-31T18:38:32.856Z,5.93
2019-03-31T18:41:03.641Z,2.17
2019-03-31T18:43:32.004Z,5.50
2019-03-31T18:46:00.811Z,7.03
2019-03-31T18:48:29.552Z,6.70
2019-03-31T18:50:58.274Z,4.67
2019-03-31T18:53:46.696Z,6.13
2019-03-31T18:56:40.999Z,4.10
2019-03-31T18:59:27.502Z,3.03
2019-03-31T19:02:16.502Z,9.58
2019-03-31T19:05:16.590Z,2.27
2019-03-31T19:08:20.182Z,2.77
2019-03-31T19:10:58.245Z,14.17
2019-03-31T19:13:55.209Z,6.30
2019-03-31T19:16:41.702Z,2.07
2019-03-31T19:19:24.056Z,5.10
2019-03-31T19:22:15.286Z,3.93
2019-03-31T19:25:08.707Z,3.73
2019-03-31T19:28:09.037Z,1.80
2019-03-31T19:31:12.332Z,3.97
2019-03-31T19:34:06.414Z,4.27
2019-03-31T19:36:46.377Z,2.03
2019-03-31T19:39:41.892Z,2.77
2019-03-31T19:42:38.679Z,4.63
2019-03-31T19:45:24.035Z,4.67
2019-03-31T19:48:04.800Z,2.90
2019-03-31T19:50:51.417Z,2.47
2019-03-31T19:53:29.062Z,7.10
2019-03-31T19:56:14.453Z,4.47
2019-03-31T19:59:07.558Z,7.27
2019-03-31T20:01:58.162Z,3.43
2019-03-31T20:04:52.158Z,10.73
2019-03-31T20:07:40.033Z,7.83
2019-03-31T20:10:32.310Z,4.70
2019-03-31T20:13:32.434Z,4.28
2019-03-31T20:16:19.768Z,1.40
2019-03-31T20:19:06.079Z,5.10
2019-03-31T20:21:44.074Z,3.97
2019-03-31T20:24:26.913Z,1.40
2019-03-31T20:27:06.454Z,3.53
2019-03-31T20:29:43.391Z,5.13
2019-03-31T20:32:29.748Z,4.17
2019-03-31T20:35:04.870Z,2.10
2019-03-31T20:37:45.640Z,3.87
2019-03-31T20:40:29.281Z,2.53
2019-03-31T20:43:08.801Z,5.60
2019-03-31T20:45:37.978Z,4.43
2019-03-31T20:48:06.702Z,1.63
2019-03-31T20:50:35.803Z,5.17
2019-03-31T20:53:04.618Z,1.13
2019-03-31T20:55:33.607Z,4.53
2019-03-31T20:58:02.620Z,4.13
2019-03-31T21:00:31.390Z,6.97
2019-03-31T21:03:00.061Z,12.40
2019-03-31T21:05:28.765Z,6.37
2019-03-31T21:07:57.736Z,4.07
2019-03-31T21:10:26.678Z,2.90
2019-03-31T21:12:55.734Z,6.57
2019-03-31T21:15:24.713Z,3.43
2019-03-31T21:17:53.499Z,5.63
2019-03-31T21:20:22.345Z,0.70
2019-03-31T21:22:51.129Z,2.23
2019-03-31T21:25:19.805Z,2.27
2019-03-31T21:27:49.012Z,5.67
2019-03-31T21:30:17.773Z,5.77
2019-03-31T21:32:46.437Z,6.30
2019-03-31T21:35:15.498Z,5.93
2019-03-31T21:37:44.190Z,3.43
2019-03-31T21:40:13.613Z,4.07
2019-03-31T21:42:42.365Z,2.80
2019-03-31T21:45:11.194Z,2.67
2019-03-31T21:47:40.158Z,3.47
2019-03-31T21:50:10.274Z,6.40
2019-03-31T21:52:38.925Z,5.17
2019-03-31T21:55:07.698Z,5.03
2019-03-31T21:57:37.031Z,6.90
2019-03-31T22:00:07.834Z,2.97
2019-03-31T22:02:36.759Z,4.97
2019-03-31T22:05:06.145Z,5.67
2019-03-31T22:07:35.013Z,3.97
2019-03-31T22:10:03.937Z,6.87
2019-03-31T22:12:32.826Z,6.50
2019-03-31T22:15:01.762Z,1.57
2019-03-31T22:17:30.571Z,5.93
2019-03-31T22:20:00.011Z,9.03
2019-03-31T22:22:29.134Z,4.27
2019-03-31T22:24:58.020Z,3.87
2019-03-31T22:27:26.752Z,13.13
2019-03-31T22:29:55.464Z,4.80
2019-03-31T22:32:24.155Z,3.87
2019-03-31T22:34:53.222Z,3.07
2019-03-31T22:37:22.253Z,4.50
2019-03-31T22:39:51.002Z,3.07
2019-03-31T22:42:20.065Z,4.03
2019-03-31T22:44:48.755Z,5.60
2019-03-31T22:47:17.437Z,5.00
2019-03-31T22:49:46.434Z,3.40
2019-03-31T22:52:15.142Z,3.17
2019-03-31T22:54:43.822Z,5.77
2019-03-31T22:57:12.550Z,5.53
2019-03-31T22:59:41.230Z,3.30
2019-03-31T23:02:09.921Z,8.60
2019-03-31T23:04:38.931Z,0.93
2019-03-31T23:07:07.790Z,10.07
2019-03-31T23:09:36.476Z,5.33
2019-03-31T23:12:05.190Z,1.20
2019-03-31T23:14:34.146Z,2.10
2019-03-31T23:17:03.315Z,3.90
2019-03-31T23:19:32.035Z,1.30
2019-03-31T23:22:00.991Z,8.70
2019-03-31T23:24:29.667Z,2.90
2019-03-31T23:26:58.665Z,2.40
2019-03-31T23:29:27.517Z,3.60
2019-03-31T23:31:56.455Z,12.20
2019-03-31T23:34:25.245Z,2.77
2019-03-31T23:36:53.962Z,5.23
2019-03-31T23:39:22.638Z,3.30
2019-03-31T23:41:51.900Z,2.93
2019-03-31T23:44:20.690Z,4.53
2019-03-31T23:46:49.628Z,3.70
2019-03-31T23:49:18.425Z,2.40
2019-03-31T23:51:47.114Z,2.83
2019-03-31T23:54:15.780Z,2.63
2019-03-31T23:56:45.201Z,1.43
2019-03-31T23:59:13.929Z,3.63
